createdAt,value
2023-11-25T00:00:57.355Z,4.80
2023-11-25T00:03:24.758Z,4.79
2023-11-25T00:05:51.682Z,4.81
2023-11-25T00:08:18.772Z,4.87
2023-11-25T00:10:45.892Z,4.86
2023-11-25T00:13:13.059Z,4.85
2023-11-25T00:15:40.665Z,4.86
2023-11-25T00:18:09.207Z,4.88
2023-11-25T00:20:38.313Z,4.88
2023-11-25T00:23:05.995Z,4.86
2023-11-25T00:25:33.245Z,4.80
2023-11-25T00:28:01.242Z,4.56
2023-11-25T00:30:28.486Z,4.48
2023-11-25T00:32:56.324Z,4.54
2023-11-25T00:35:23.699Z,4.60
2023-11-25T00:37:50.720Z,4.54
2023-11-25T00:40:18.465Z,4.41
2023-11-25T00:42:47.901Z,4.36
2023-11-25T00:45:17.720Z,4.32
2023-11-25T00:47:44.991Z,4.35
2023-11-25T00:50:12.724Z,4.36
2023-11-25T00:52:40.398Z,4.33
2023-11-25T00:55:08.755Z,4.33
2023-11-25T00:57:36.543Z,4.14
2023-11-25T01:00:11.680Z,4.17
2023-11-25T01:02:39.113Z,4.12
2023-11-25T01:05:06.517Z,4.05
2023-11-25T01:07:33.820Z,3.97
2023-11-25T01:10:00.888Z,3.96
2023-11-25T01:12:27.741Z,4.07
2023-11-25T01:14:55.590Z,3.93
2023-11-25T01:17:24.672Z,3.87
2023-11-25T01:19:51.566Z,3.75
2023-11-25T01:22:18.990Z,3.73
2023-11-25T01:24:46.313Z,3.69
2023-11-25T01:27:14.270Z,3.66
2023-11-25T01:29:41.219Z,3.76
2023-11-25T01:32:08.104Z,3.79
2023-11-25T01:34:35.256Z,3.83
2023-11-25T01:37:02.526Z,3.92
2023-11-25T01:39:29.490Z,3.93
2023-11-25T01:41:56.342Z,3.94
2023-11-25T01:44:23.761Z,4.01
2023-11-25T01:46:53.373Z,4.08
2023-11-25T01:49:22.550Z,4.19
2023-11-25T01:51:52.128Z,4.22
2023-11-25T01:54:19.806Z,4.26
2023-11-25T01:56:51.737Z,4.24
2023-11-25T01:59:20.846Z,4.28
2023-11-25T02:01:48.290Z,4.32
2023-11-25T02:04:15.661Z,4.33
2023-11-25T02:06:42.859Z,4.16
2023-11-25T02:09:10.071Z,4.18
2023-11-25T02:12:03.533Z,4.20
2023-11-25T02:14:31.161Z,4.18
2023-11-25T02:16:58.638Z,4.13
2023-11-25T02:19:26.175Z,4.10
2023-11-25T02:21:54.158Z,4.17
2023-11-25T02:24:21.387Z,4.16
2023-11-25T02:26:49.696Z,4.17
2023-11-25T02:29:16.567Z,3.98
2023-11-25T02:31:44.454Z,3.82
2023-11-25T02:34:12.248Z,3.90
2023-11-25T02:36:39.893Z,3.94
2023-11-25T02:39:07.012Z,3.92
2023-11-25T02:41:35.727Z,3.89
2023-11-25T02:44:02.897Z,3.84
2023-11-25T02:46:29.931Z,3.90
2023-11-25T02:48:57.268Z,3.91
2023-11-25T02:51:24.172Z,3.88
2023-11-25T02:53:51.087Z,3.91
2023-11-25T02:56:18.677Z,3.94
2023-11-25T02:58:45.594Z,3.93
2023-11-25T03:01:15.516Z,3.95
2023-11-25T03:03:48.955Z,3.94
2023-11-25T03:06:17.649Z,3.95
2023-11-25T03:08:45.124Z,3.91
2023-11-25T03:11:17.284Z,3.90
2023-11-25T03:13:44.290Z,3.87
2023-11-25T03:16:12.377Z,3.89
2023-11-25T03:18:39.396Z,3.88
2023-11-25T03:21:07.837Z,3.90
2023-11-25T03:23:34.784Z,3.91
2023-11-25T03:26:01.841Z,3.95
2023-11-25T03:28:29.071Z,3.97
2023-11-25T03:30:56.609Z,3.91
2023-11-25T03:33:23.658Z,3.88
2023-11-25T03:35:50.986Z,3.91
2023-11-25T03:38:17.913Z,3.84
2023-11-25T03:40:44.937Z,3.82
2023-11-25T03:43:11.924Z,3.82
2023-11-25T03:45:38.938Z,3.82
2023-11-25T03:48:07.261Z,3.73
2023-11-25T03:50:34.549Z,3.72
2023-11-25T03:53:02.363Z,3.71
2023-11-25T03:55:29.592Z,3.62
2023-11-25T03:57:56.451Z,3.60
2023-11-25T04:00:24.301Z,3.58
2023-11-25T04:02:52.897Z,3.58
2023-11-25T04:05:20.261Z,3.57
2023-11-25T04:07:47.606Z,3.55
2023-11-25T04:10:15.274Z,3.52
2023-11-25T04:12:50.592Z,3.56
2023-11-25T04:15:21.119Z,3.52
2023-11-25T04:17:48.649Z,3.49
2023-11-25T04:20:16.198Z,3.48
2023-11-25T04:22:49.577Z,3.43
2023-11-25T04:25:17.473Z,3.44
2023-11-25T04:27:48.438Z,3.37
2023-11-25T04:30:17.373Z,3.32
2023-11-25T04:32:46.097Z,3.30
2023-11-25T04:35:15.472Z,3.26
2023-11-25T04:37:47.813Z,3.23
2023-11-25T04:40:16.272Z,3.14
2023-11-25T04:42:43.546Z,3.07
2023-11-25T04:45:18.656Z,3.03
2023-11-25T04:47:46.707Z,3.02
2023-11-25T04:50:14.978Z,2.98
2023-11-25T04:52:42.335Z,2.94
2023-11-25T04:55:13.798Z,2.94
2023-11-25T04:57:41.303Z,2.84
2023-11-25T05:00:12.512Z,2.86
2023-11-25T05:02:40.468Z,2.75
2023-11-25T05:05:09.060Z,2.67
2023-11-25T05:07:37.035Z,2.62
2023-11-25T05:10:08.082Z,2.52
2023-11-25T05:12:35.109Z,2.48
2023-11-25T05:15:02.154Z,2.52
2023-11-25T05:17:30.055Z,2.55
2023-11-25T05:19:57.015Z,2.50
2023-11-25T05:22:23.998Z,2.49
2023-11-25T05:24:50.961Z,2.49
2023-11-25T05:27:17.879Z,2.25
2023-11-25T05:29:45.638Z,2.01
2023-11-25T05:32:14.424Z,1.80
2023-11-25T05:34:42.074Z,1.59
2023-11-25T05:37:12.104Z,1.47
2023-11-25T05:39:42.305Z,1.51
2023-11-25T05:42:09.873Z,1.59
2023-11-25T05:44:36.828Z,1.66
2023-11-25T05:47:06.946Z,1.66
2023-11-25T05:49:34.479Z,1.69
2023-11-25T05:52:01.512Z,1.69
2023-11-25T05:54:28.976Z,1.67
2023-11-25T05:56:56.153Z,1.65
2023-11-25T05:59:23.323Z,1.59
2023-11-25T06:01:50.647Z,1.53
2023-11-25T06:04:21.817Z,1.45
2023-11-25T06:06:49.318Z,1.16
2023-11-25T06:09:16.675Z,1.33
2023-11-25T06:11:43.804Z,1.52
2023-11-25T06:14:14.269Z,1.62
2023-11-25T06:16:44.141Z,1.66
2023-11-25T06:19:11.845Z,1.70
2023-11-25T06:21:41.159Z,1.71
2023-11-25T06:24:09.270Z,1.78
2023-11-25T06:26:36.640Z,1.80
2023-11-25T06:29:04.317Z,1.80
2023-11-25T06:31:33.096Z,1.92
2023-11-25T06:34:01.852Z,1.95
2023-11-25T06:36:33.898Z,1.99
2023-11-25T06:39:00.833Z,2.05
2023-11-25T06:41:28.651Z,2.08
2023-11-25T06:43:55.734Z,2.09
2023-11-25T06:46:25.512Z,2.13
2023-11-25T06:48:54.242Z,2.21
2023-11-25T06:51:21.194Z,2.21
2023-11-25T06:53:48.165Z,2.22
2023-11-25T06:56:21.069Z,2.32
2023-11-25T06:58:48.107Z,2.36
2023-11-25T07:01:21.225Z,2.36
2023-11-25T07:03:48.276Z,2.36
2023-11-25T07:06:18.204Z,2.46
2023-11-25T07:08:48.100Z,2.53
2023-11-25T07:11:15.501Z,2.58
2023-11-25T07:13:43.638Z,2.54
2023-11-25T07:16:13.802Z,2.53
2023-11-25T07:18:44.449Z,2.39
2023-11-25T07:21:12.990Z,2.52
2023-11-25T07:23:41.028Z,2.41
2023-11-25T07:26:08.470Z,2.52
2023-11-25T07:28:37.045Z,2.63
2023-11-25T07:31:05.017Z,2.55
2023-11-25T07:33:32.968Z,2.61
2023-11-25T07:36:00.148Z,2.72
2023-11-25T07:38:27.185Z,2.77
2023-11-25T07:40:54.176Z,2.76
2023-11-25T07:43:21.544Z,2.77
2023-11-25T07:45:48.466Z,2.93
2023-11-25T07:48:15.597Z,2.99
2023-11-25T07:50:50.368Z,3.07
2023-11-25T07:55:50.387Z,3.22
2023-11-25T07:58:17.365Z,3.25
2023-11-25T08:00:44.284Z,3.24
2023-11-25T08:03:11.704Z,3.27
2023-11-25T08:05:38.624Z,3.31
2023-11-25T08:08:05.796Z,3.37
2023-11-25T08:10:36.623Z,3.38
2023-11-25T08:13:04.081Z,3.46
2023-11-25T08:15:32.683Z,3.61
2023-11-25T08:18:00.255Z,3.74
2023-11-25T08:20:27.539Z,3.80
2023-11-25T08:22:54.935Z,3.87
2023-11-25T08:25:22.057Z,3.91
2023-11-25T08:27:52.165Z,4.00
2023-11-25T08:30:19.357Z,4.06
2023-11-25T08:32:46.507Z,4.14
2023-11-25T08:35:13.660Z,4.14
2023-11-25T08:37:42.070Z,4.24
2023-11-25T08:40:29.394Z,4.07
2023-11-25T08:42:57.752Z,4.07
2023-11-25T08:45:25.682Z,4.03
2023-11-25T08:47:52.802Z,4.06
2023-11-25T08:50:20.598Z,4.08
2023-11-25T08:52:50.624Z,4.01
2023-11-25T08:55:19.966Z,3.96
2023-11-25T08:57:47.840Z,4.01
2023-11-25T09:00:21.739Z,4.01
2023-11-25T09:02:52.804Z,4.16
2023-11-25T09:05:24.235Z,4.27
2023-11-25T09:07:57.331Z,4.34
2023-11-25T09:10:26.975Z,4.42
2023-11-25T09:12:54.714Z,4.48
2023-11-25T09:15:22.985Z,4.50
2023-11-25T09:17:50.099Z,4.56
2023-11-25T09:20:18.465Z,4.53
2023-11-25T09:22:46.440Z,4.47
2023-11-25T09:25:13.921Z,4.50
2023-11-25T09:27:41.787Z,4.46
2023-11-25T09:30:13.303Z,4.40
2023-11-25T09:32:41.977Z,4.45
2023-11-25T09:35:12.489Z,4.52
2023-11-25T09:37:40.262Z,4.47
2023-11-25T09:40:08.879Z,4.56
2023-11-25T09:42:35.873Z,4.61
2023-11-25T09:45:03.547Z,4.58
2023-11-25T09:47:30.856Z,4.63
2023-11-25T09:49:57.846Z,4.66
2023-11-25T09:52:29.545Z,4.71
2023-11-25T09:55:00.039Z,4.72
2023-11-25T09:57:34.069Z,4.72
2023-11-25T10:00:07.648Z,4.80
2023-11-25T10:02:37.550Z,4.96
2023-11-25T10:05:06.350Z,5.10
2023-11-25T10:07:33.906Z,5.26
2023-11-25T10:10:02.739Z,5.41
2023-11-25T10:12:31.285Z,5.44
2023-11-25T10:15:00.780Z,5.42
2023-11-25T10:17:28.344Z,5.42
2023-11-25T10:20:20.713Z,5.40
2023-11-25T10:22:49.692Z,5.37
2023-11-25T10:25:21.245Z,5.61
2023-11-25T10:27:49.331Z,5.64
2023-11-25T10:30:16.416Z,5.63
2023-11-25T10:32:44.070Z,5.72
2023-11-25T10:35:11.301Z,5.65
2023-11-25T10:37:42.421Z,5.76
2023-11-25T10:40:18.266Z,5.87
2023-11-25T10:42:46.896Z,6.03
2023-11-25T10:45:18.253Z,6.00
2023-11-25T10:47:45.854Z,6.00
2023-11-25T10:50:14.889Z,6.14
2023-11-25T10:52:44.949Z,5.94
2023-11-25T10:55:12.200Z,5.84
2023-11-25T10:57:39.509Z,5.88
2023-11-25T11:00:12.924Z,5.79
2023-11-25T11:02:52.106Z,5.80
2023-11-25T11:05:33.986Z,5.85
2023-11-25T11:08:24.144Z,5.98
2023-11-25T11:11:07.056Z,6.21
2023-11-25T11:14:16.230Z,5.83
2023-11-25T11:16:49.418Z,5.65
2023-11-25T11:19:20.042Z,5.61
2023-11-25T11:21:52.845Z,5.67
2023-11-25T11:24:25.066Z,5.73
2023-11-25T11:27:16.005Z,5.89
2023-11-25T11:29:50.698Z,5.60
2023-11-25T11:32:22.982Z,5.59
2023-11-25T11:34:50.692Z,5.72
2023-11-25T11:37:18.762Z,5.91
2023-11-25T11:40:01.152Z,5.86
2023-11-25T11:42:40.949Z,5.92
2023-11-25T11:45:17.422Z,5.73
2023-11-25T11:47:51.378Z,5.56
2023-11-25T11:50:20.496Z,5.61
2023-11-25T11:52:56.401Z,5.53
2023-11-25T11:55:38.048Z,5.50
2023-11-25T11:58:15.606Z,5.39
2023-11-25T12:00:53.811Z,5.40
2023-11-25T12:03:21.576Z,5.41
2023-11-25T12:05:48.621Z,5.42
2023-11-25T12:08:15.939Z,5.47
2023-11-25T12:10:43.132Z,5.65
2023-11-25T12:13:12.396Z,5.58
2023-11-25T12:15:40.327Z,5.79
2023-11-25T12:18:07.559Z,5.86
2023-11-25T12:20:35.304Z,6.12
2023-11-25T12:23:10.518Z,6.01
2023-11-25T12:25:38.390Z,5.80
2023-11-25T12:28:12.345Z,5.74
2023-11-25T12:30:41.467Z,5.88
2023-11-25T12:33:09.942Z,6.02
2023-11-25T12:35:46.668Z,5.97
2023-11-25T12:38:16.527Z,5.76
2023-11-25T12:40:47.787Z,5.70
2023-11-25T12:43:15.658Z,5.52
2023-11-25T12:45:48.363Z,5.32
2023-11-25T12:48:29.714Z,5.18
2023-11-25T12:51:09.047Z,5.26
2023-11-25T12:53:36.885Z,5.27
2023-11-25T12:56:04.651Z,5.44
2023-11-25T12:58:32.644Z,5.59
2023-11-25T13:00:59.978Z,5.60
2023-11-25T13:03:34.483Z,5.60
2023-11-25T13:06:11.202Z,5.47
2023-11-25T13:08:41.431Z,5.32
2023-11-25T13:11:10.410Z,5.18
2023-11-25T13:13:38.209Z,5.19
2023-11-25T13:16:06.591Z,5.11
2023-11-25T13:18:36.353Z,5.04
2023-11-25T13:21:06.966Z,5.00
2023-11-25T13:23:35.033Z,4.99
2023-11-25T13:26:02.028Z,5.01
2023-11-25T13:28:29.134Z,5.02
2023-11-25T13:30:56.038Z,4.96
2023-11-25T13:33:23.524Z,4.89
2023-11-25T13:35:50.528Z,4.88
2023-11-25T13:38:17.949Z,4.74
2023-11-25T13:40:45.284Z,4.65
2023-11-25T13:43:14.838Z,4.65
2023-11-25T13:45:44.595Z,4.61
2023-11-25T13:48:13.437Z,4.58
2023-11-25T13:50:41.062Z,4.60
2023-11-25T13:53:08.428Z,4.37
2023-11-25T13:55:39.257Z,4.19
2023-11-25T13:58:08.332Z,4.12
2023-11-25T14:00:35.832Z,4.10
2023-11-25T14:03:03.125Z,4.03
2023-11-25T14:05:32.581Z,3.94
2023-11-25T14:07:59.495Z,3.94
2023-11-25T14:10:26.497Z,3.99
2023-11-25T14:12:53.633Z,4.01
2023-11-25T14:15:20.597Z,4.01
2023-11-25T14:17:48.296Z,3.97
2023-11-25T14:20:18.196Z,3.95
2023-11-25T14:22:45.779Z,3.94
2023-11-25T14:25:32.872Z,3.90
2023-11-25T14:28:03.407Z,3.89
2023-11-25T14:30:34.911Z,3.85
2023-11-25T14:33:05.758Z,3.87
2023-11-25T14:35:38.199Z,3.79
2023-11-25T14:38:07.559Z,3.84
2023-11-25T14:40:40.511Z,3.80
2023-11-25T14:43:07.845Z,3.80
2023-11-25T14:45:36.059Z,3.75
2023-11-25T14:48:04.628Z,3.74
2023-11-25T14:50:31.945Z,3.72
2023-11-25T14:53:01.208Z,3.75
2023-11-25T14:55:28.209Z,3.74
2023-11-25T14:57:55.187Z,3.71
2023-11-25T15:00:24.206Z,3.76
2023-11-25T15:02:51.276Z,3.81
2023-11-25T15:05:18.358Z,3.80
2023-11-25T15:07:47.619Z,3.78
2023-11-25T15:10:15.042Z,3.74
2023-11-25T15:12:41.972Z,3.73
2023-11-25T15:15:10.096Z,3.67
2023-11-25T15:17:37.176Z,3.63
2023-11-25T15:20:05.663Z,3.63
2023-11-25T15:22:33.105Z,3.64
2023-11-25T15:25:00.579Z,3.65
2023-11-25T15:27:27.924Z,3.66
2023-11-25T15:30:01.537Z,3.63
2023-11-25T15:32:28.769Z,3.63
2023-11-25T15:34:55.825Z,3.61
2023-11-25T15:37:23.010Z,3.57
2023-11-25T15:39:50.213Z,3.52
2023-11-25T15:42:17.358Z,3.46
2023-11-25T15:44:44.307Z,3.37
2023-11-25T15:47:11.686Z,3.37
2023-11-25T15:49:38.830Z,3.33
2023-11-25T15:52:06.430Z,3.32
2023-11-25T15:54:33.946Z,3.29
2023-11-25T15:57:01.003Z,3.25
2023-11-25T15:59:30.921Z,3.25
2023-11-25T16:01:58.883Z,3.13
2023-11-25T16:04:26.283Z,3.20
2023-11-25T16:06:55.284Z,3.19
2023-11-25T16:09:22.534Z,3.17
2023-11-25T16:11:50.137Z,3.17
2023-11-25T16:14:17.178Z,3.16
2023-11-25T16:16:44.425Z,3.09
2023-11-25T16:19:11.769Z,3.12
2023-11-25T16:21:39.447Z,3.06
2023-11-25T16:24:08.149Z,3.11
2023-11-25T16:26:35.721Z,3.16
2023-11-25T16:29:03.324Z,3.25
2023-11-25T16:31:30.930Z,3.23
2023-11-25T16:33:57.877Z,3.23
2023-11-25T16:36:24.766Z,3.23
2023-11-25T16:38:51.641Z,3.21
2023-11-25T16:41:22.622Z,3.19
2023-11-25T16:43:49.689Z,3.23
2023-11-25T16:46:18.642Z,3.31
2023-11-25T16:48:53.171Z,3.32
2023-11-25T16:51:25.520Z,3.30
2023-11-25T16:53:52.775Z,3.27
2023-11-25T16:56:19.813Z,3.31
2023-11-25T16:58:47.480Z,3.28
2023-11-25T17:01:14.703Z,3.25
2023-11-25T17:03:42.105Z,3.26
2023-11-25T17:06:11.441Z,3.29
2023-11-25T17:08:38.364Z,3.32
2023-11-25T17:11:05.814Z,3.27
2023-11-25T17:13:32.784Z,3.19
2023-11-25T17:16:01.022Z,3.17
2023-11-25T17:18:27.938Z,3.13
2023-11-25T17:20:54.894Z,3.13
2023-11-25T17:23:22.309Z,3.15
2023-11-25T17:25:49.319Z,3.11
2023-11-25T17:28:16.247Z,3.13
2023-11-25T17:30:43.396Z,3.09
2023-11-25T17:33:14.230Z,3.04
2023-11-25T17:35:41.252Z,3.00
2023-11-25T17:38:08.541Z,2.95
2023-11-25T17:40:36.031Z,2.95
2023-11-25T17:43:03.354Z,2.87
2023-11-25T17:45:30.338Z,2.85
2023-11-25T17:47:57.337Z,2.89
2023-11-25T17:50:25.762Z,2.89
2023-11-25T17:53:03.917Z,2.86
2023-11-25T17:55:36.980Z,2.89
2023-11-25T17:58:03.889Z,2.81
2023-11-25T18:00:31.863Z,2.79
2023-11-25T18:02:59.317Z,2.76
2023-11-25T18:05:26.316Z,2.67
2023-11-25T18:07:55.224Z,2.61
2023-11-25T18:10:22.605Z,2.57
2023-11-25T18:12:49.686Z,2.52
2023-11-25T18:15:16.697Z,2.54
2023-11-25T18:17:44.132Z,2.55
2023-11-25T18:20:12.600Z,2.63
2023-11-25T18:22:42.440Z,2.66
2023-11-25T18:25:12.768Z,2.69
2023-11-25T18:27:40.398Z,2.71
2023-11-25T18:30:09.351Z,2.72
2023-11-25T18:32:37.203Z,2.73
2023-11-25T18:35:05.649Z,2.71
2023-11-25T18:37:32.678Z,2.77
2023-11-25T18:39:59.541Z,2.77
2023-11-25T18:42:27.445Z,2.76
2023-11-25T18:44:54.647Z,2.68
2023-11-25T18:47:21.570Z,2.53
2023-11-25T18:49:48.536Z,2.35
2023-11-25T18:52:15.564Z,2.21
2023-11-25T18:54:45.228Z,2.07
2023-11-25T18:57:12.769Z,2.10
2023-11-25T18:59:39.741Z,2.03
2023-11-25T19:02:06.761Z,1.99
2023-11-25T19:04:33.935Z,1.97
2023-11-25T19:07:01.289Z,2.08
2023-11-25T19:09:28.235Z,2.02
2023-11-25T19:11:55.578Z,2.03
2023-11-25T19:14:22.483Z,2.08
2023-11-25T19:16:49.517Z,2.04
2023-11-25T19:19:16.583Z,2.11
2023-11-25T19:21:43.575Z,2.17
2023-11-25T19:24:11.065Z,2.18
2023-11-25T19:26:44.523Z,2.21
2023-11-25T19:29:11.874Z,2.25
2023-11-25T19:31:38.833Z,2.23
2023-11-25T19:34:06.184Z,2.17
2023-11-25T19:36:33.961Z,2.19
2023-11-25T19:39:00.862Z,2.26
2023-11-25T19:41:27.808Z,2.30
2023-11-25T19:43:55.494Z,2.33
2023-11-25T19:46:22.391Z,2.31
2023-11-25T19:48:49.292Z,2.41
2023-11-25T19:51:16.221Z,2.37
2023-11-25T19:53:50.523Z,2.39
2023-11-25T19:56:20.444Z,2.36
2023-11-25T19:58:47.666Z,2.45
2023-11-25T20:01:15.420Z,2.49
2023-11-25T20:03:42.858Z,2.48
2023-11-25T20:06:09.903Z,2.47
2023-11-25T20:08:36.888Z,2.47
2023-11-25T20:11:04.820Z,2.39
2023-11-25T20:13:31.987Z,2.37
2023-11-25T20:15:59.737Z,2.33
2023-11-25T20:18:26.802Z,2.27
2023-11-25T20:20:53.952Z,2.23
2023-11-25T20:23:21.699Z,2.15
2023-11-25T20:25:49.073Z,2.17
2023-11-25T20:28:16.294Z,2.10
2023-11-25T20:30:44.465Z,2.09
2023-11-25T20:33:11.528Z,2.04
2023-11-25T20:35:38.534Z,2.04
2023-11-25T20:38:05.617Z,2.01
2023-11-25T20:40:32.824Z,2.00
2023-11-25T20:43:00.108Z,1.97
2023-11-25T20:45:26.982Z,1.95
2023-11-25T20:47:54.045Z,1.94
2023-11-25T20:50:21.095Z,1.86
2023-11-25T20:52:48.648Z,1.72
2023-11-25T20:55:16.362Z,1.65
2023-11-25T20:57:43.472Z,1.58
2023-11-25T21:00:12.194Z,1.53
2023-11-25T21:02:40.517Z,1.48
2023-11-25T21:05:08.444Z,1.45
2023-11-25T21:07:35.557Z,1.43
2023-11-25T21:10:02.406Z,1.36
2023-11-25T21:12:29.484Z,1.37
2023-11-25T21:14:56.425Z,1.35
2023-11-25T21:17:23.760Z,1.37
2023-11-25T21:19:52.214Z,1.39
2023-11-25T21:22:22.043Z,1.36
2023-11-25T21:24:49.198Z,1.29
2023-11-25T21:27:16.124Z,1.25
2023-11-25T21:29:45.486Z,1.15
2023-11-25T21:32:15.020Z,1.07
2023-11-25T21:34:42.167Z,1.02
2023-11-25T21:37:09.135Z,0.93
2023-11-25T21:39:36.007Z,0.89
2023-11-25T21:42:02.961Z,0.84
2023-11-25T21:44:31.530Z,0.77
2023-11-25T21:46:59.880Z,0.76
2023-11-25T21:49:30.800Z,0.69
2023-11-25T21:51:57.862Z,0.61
2023-11-25T21:54:24.953Z,0.61
2023-11-25T21:56:51.871Z,0.54
2023-11-25T21:59:21.821Z,0.45
2023-11-25T22:01:49.400Z,0.46
2023-11-25T22:04:22.675Z,0.44
2023-11-25T22:06:50.489Z,0.39
2023-11-25T22:09:18.229Z,0.32
2023-11-25T22:11:46.403Z,0.28
2023-11-25T22:14:13.718Z,0.25
2023-11-25T22:16:40.675Z,0.21
2023-11-25T22:19:07.564Z,0.21
2023-11-25T22:21:35.412Z,0.15
2023-11-25T22:24:03.330Z,0.13
2023-11-25T22:26:39.069Z,0.11
2023-11-25T22:29:06.488Z,0.02
2023-11-25T22:31:36.849Z,0.01
2023-11-25T22:34:05.575Z,-0.04
2023-11-25T22:36:36.313Z,-0.06
2023-11-25T22:39:03.446Z,-0.11
2023-11-25T22:41:32.262Z,-0.13
2023-11-25T22:43:59.443Z,-0.17
2023-11-25T22:46:26.977Z,-0.19
2023-11-25T22:48:56.987Z,-0.22
2023-11-25T22:51:25.577Z,-0.27
2023-11-25T22:53:53.990Z,-0.26
2023-11-25T22:56:22.513Z,-0.29
2023-11-25T22:58:49.498Z,-0.33
2023-11-25T23:01:28.704Z,-0.36
2023-11-25T23:03:56.702Z,-0.36
2023-11-25T23:06:24.855Z,-0.39
2023-11-25T23:08:53.958Z,-0.42
2023-11-25T23:11:21.200Z,-0.44
2023-11-25T23:13:50.443Z,-0.49
2023-11-25T23:16:18.818Z,-0.52
2023-11-25T23:18:45.779Z,-0.58
2023-11-25T23:21:12.666Z,-0.62
2023-11-25T23:23:46.163Z,-0.66
2023-11-25T23:26:17.037Z,-0.69
2023-11-25T23:28:44.626Z,-0.73
2023-11-25T23:31:11.641Z,-0.80
2023-11-25T23:33:40.175Z,-0.85
2023-11-25T23:36:11.287Z,-0.85
2023-11-25T23:38:38.377Z,-0.85
2023-11-25T23:41:06.577Z,-0.85
2023-11-25T23:43:34.085Z,-0.90
2023-11-25T23:46:04.920Z,-0.90
2023-11-25T23:48:32.379Z,-1.00
2023-11-25T23:51:06.392Z,-0.99
2023-11-25T23:53:33.400Z,-1.04
2023-11-25T23:56:00.785Z,-1.11
2023-11-25T23:58:30.782Z,-1.12
